sensor_id;sensor_type;location;lat;lon;timestamp;pressure;altitude;pressure_sealevel;temperature;humidity
38786;BME280;24535;45.508;12.252;2022-08-21T00:01:52;101109.81;;;27.07;50.94
38786;BME280;24535;45.508;12.252;2022-08-21T00:04:17;101097.72;;;27.03;51.22
38786;BME280;24535;45.508;12.252;2022-08-21T00:06:43;101102.50;;;27.01;51.75
38786;BME280;24535;45.508;12.252;2022-08-21T00:09:09;101098.13;;;27.00;52.42
38786;BME280;24535;45.508;12.252;2022-08-21T00:11:36;101095.19;;;26.95;52.21
38786;BME280;24535;45.508;12.252;2022-08-21T00:14:03;101099.13;;;26.92;52.36
38786;BME280;24535;45.508;12.252;2022-08-21T00:16:29;101101.00;;;26.92;52.63
38786;BME280;24535;45.508;12.252;2022-08-21T00:18:55;101098.25;;;26.85;53.13
38786;BME280;24535;45.508;12.252;2022-08-21T00:21:20;101098.69;;;26.82;53.04
38786;BME280;24535;45.508;12.252;2022-08-21T00:23:47;101089.28;;;26.78;52.99
38786;BME280;24535;45.508;12.252;2022-08-21T00:26:13;101100.50;;;26.75;52.78
38786;BME280;24535;45.508;12.252;2022-08-21T00:28:38;101092.78;;;26.72;53.01
38786;BME280;24535;45.508;12.252;2022-08-21T00:31:04;101093.84;;;26.71;53.17
38786;BME280;24535;45.508;12.252;2022-08-21T00:33:30;101094.44;;;26.73;53.32
38786;BME280;24535;45.508;12.252;2022-08-21T00:36:05;101094.66;;;26.71;53.06
38786;BME280;24535;45.508;12.252;2022-08-21T00:38:31;101091.91;;;26.65;53.01
38786;BME280;24535;45.508;12.252;2022-08-21T00:41:00;101095.44;;;26.65;52.91
38786;BME280;24535;45.508;12.252;2022-08-21T00:43:29;101092.50;;;26.60;52.94
38786;BME280;24535;45.508;12.252;2022-08-21T00:45:56;101088.94;;;26.53;52.98
38786;BME280;24535;45.508;12.252;2022-08-21T00:51:22;101099.94;;;26.51;52.98
38786;BME280;24535;45.508;12.252;2022-08-21T00:53:54;101094.31;;;26.46;52.93
38786;BME280;24535;45.508;12.252;2022-08-21T00:56:21;101090.09;;;26.44;53.16
38786;BME280;24535;45.508;12.252;2022-08-21T00:58:49;101086.38;;;26.45;53.12
38786;BME280;24535;45.508;12.252;2022-08-21T01:01:15;101078.66;;;26.42;53.14
38786;BME280;24535;45.508;12.252;2022-08-21T01:03:43;101079.25;;;26.37;53.02
38786;BME280;24535;45.508;12.252;2022-08-21T01:06:10;101080.66;;;26.33;52.82
38786;BME280;24535;45.508;12.252;2022-08-21T01:08:35;101084.78;;;26.29;53.01
38786;BME280;24535;45.508;12.252;2022-08-21T01:11:02;101078.31;;;26.23;53.17
38786;BME280;24535;45.508;12.252;2022-08-21T01:13:30;101076.47;;;26.24;53.51
38786;BME280;24535;45.508;12.252;2022-08-21T01:15:58;101075.63;;;26.23;53.34
38786;BME280;24535;45.508;12.252;2022-08-21T01:18:25;101073.50;;;26.19;53.37
38786;BME280;24535;45.508;12.252;2022-08-21T01:23:26;101076.81;;;26.14;53.08
38786;BME280;24535;45.508;12.252;2022-08-21T01:26:07;101077.44;;;26.16;53.55
38786;BME280;24535;45.508;12.252;2022-08-21T01:28:37;101080.56;;;26.13;53.39
38786;BME280;24535;45.508;12.252;2022-08-21T01:31:06;101067.59;;;26.08;53.29
38786;BME280;24535;45.508;12.252;2022-08-21T01:33:33;101069.94;;;26.11;53.66
38786;BME280;24535;45.508;12.252;2022-08-21T01:35:58;101070.13;;;26.10;53.34
38786;BME280;24535;45.508;12.252;2022-08-21T01:38:27;101077.84;;;26.13;53.78
38786;BME280;24535;45.508;12.252;2022-08-21T01:40:55;101070.59;;;26.13;53.84
38786;BME280;24535;45.508;12.252;2022-08-21T01:43:38;101068.72;;;26.14;53.68
38786;BME280;24535;45.508;12.252;2022-08-21T01:46:04;101064.34;;;26.13;53.72
38786;BME280;24535;45.508;12.252;2022-08-21T01:48:29;101062.88;;;26.10;53.75
38786;BME280;24535;45.508;12.252;2022-08-21T01:51:02;101067.22;;;26.11;53.59
38786;BME280;24535;45.508;12.252;2022-08-21T01:53:27;101063.03;;;26.09;53.55
38786;BME280;24535;45.508;12.252;2022-08-21T01:55:53;101054.31;;;26.07;53.84
38786;BME280;24535;45.508;12.252;2022-08-21T01:58:18;101053.66;;;26.05;53.89
38786;BME280;24535;45.508;12.252;2022-08-21T02:00:44;101064.66;;;26.03;54.09
38786;BME280;24535;45.508;12.252;2022-08-21T02:03:09;101050.56;;;26.01;54.09
38786;BME280;24535;45.508;12.252;2022-08-21T02:05:41;101055.94;;;26.01;54.27
38786;BME280;24535;45.508;12.252;2022-08-21T02:08:06;101052.97;;;25.96;54.01
38786;BME280;24535;45.508;12.252;2022-08-21T02:10:33;101054.00;;;25.95;54.38
38786;BME280;24535;45.508;12.252;2022-08-21T02:12:59;101050.88;;;25.92;54.20
38786;BME280;24535;45.508;12.252;2022-08-21T02:15:26;101051.06;;;25.90;54.52
38786;BME280;24535;45.508;12.252;2022-08-21T02:17:54;101050.25;;;25.89;54.60
38786;BME280;24535;45.508;12.252;2022-08-21T02:20:32;101046.72;;;25.89;54.40
38786;BME280;24535;45.508;12.252;2022-08-21T02:22:59;101035.66;;;25.84;54.49
38786;BME280;24535;45.508;12.252;2022-08-21T02:25:26;101037.72;;;25.82;54.28
38786;BME280;24535;45.508;12.252;2022-08-21T02:27:53;101045.00;;;25.81;54.37
38786;BME280;24535;45.508;12.252;2022-08-21T02:30:32;101042.66;;;25.78;55.06
38786;BME280;24535;45.508;12.252;2022-08-21T02:32:58;101040.31;;;25.75;54.67
38786;BME280;24535;45.508;12.252;2022-08-21T02:35:25;101035.50;;;25.71;54.68
38786;BME280;24535;45.508;12.252;2022-08-21T02:38:03;101042.78;;;25.70;54.50
38786;BME280;24535;45.508;12.252;2022-08-21T02:40:38;101040.69;;;25.72;54.30
38786;BME280;24535;45.508;12.252;2022-08-21T02:43:05;101039.88;;;25.72;54.29
38786;BME280;24535;45.508;12.252;2022-08-21T02:45:32;101037.28;;;25.78;54.08
38786;BME280;24535;45.508;12.252;2022-08-21T02:48:04;101032.50;;;25.80;54.17
38786;BME280;24535;45.508;12.252;2022-08-21T02:50:37;101031.88;;;25.78;54.14
38786;BME280;24535;45.508;12.252;2022-08-21T02:53:04;101035.03;;;25.82;54.18
38786;BME280;24535;45.508;12.252;2022-08-21T02:55:32;101032.13;;;25.83;54.29
38786;BME280;24535;45.508;12.252;2022-08-21T02:57:59;101022.97;;;25.84;54.57
38786;BME280;24535;45.508;12.252;2022-08-21T03:00:27;101025.69;;;25.84;54.76
38786;BME280;24535;45.508;12.252;2022-08-21T03:02:55;101029.66;;;25.88;54.69
38786;BME280;24535;45.508;12.252;2022-08-21T03:05:22;101020.94;;;25.86;54.66
38786;BME280;24535;45.508;12.252;2022-08-21T03:07:48;101034.50;;;25.93;54.32
38786;BME280;24535;45.508;12.252;2022-08-21T03:10:15;101023.25;;;25.89;54.22
38786;BME280;24535;45.508;12.252;2022-08-21T03:12:41;101029.47;;;25.90;54.40
38786;BME280;24535;45.508;12.252;2022-08-21T03:15:10;101028.66;;;25.89;54.95
38786;BME280;24535;45.508;12.252;2022-08-21T03:17:37;101027.41;;;25.92;54.91
38786;BME280;24535;45.508;12.252;2022-08-21T03:20:05;101036.34;;;25.93;55.01
38786;BME280;24535;45.508;12.252;2022-08-21T03:22:33;101028.88;;;25.95;54.60
38786;BME280;24535;45.508;12.252;2022-08-21T03:24:59;101031.59;;;25.95;54.64
38786;BME280;24535;45.508;12.252;2022-08-21T03:27:26;101026.97;;;25.88;54.20
38786;BME280;24535;45.508;12.252;2022-08-21T03:29:53;101021.97;;;25.85;54.72
38786;BME280;24535;45.508;12.252;2022-08-21T03:32:19;101030.66;;;25.81;54.79
38786;BME280;24535;45.508;12.252;2022-08-21T03:34:50;101029.19;;;25.78;54.86
38786;BME280;24535;45.508;12.252;2022-08-21T03:37:16;101039.28;;;25.76;55.10
38786;BME280;24535;45.508;12.252;2022-08-21T03:39:42;101024.50;;;25.72;54.99
38786;BME280;24535;45.508;12.252;2022-08-21T03:42:08;101038.66;;;25.74;55.12
38786;BME280;24535;45.508;12.252;2022-08-21T03:44:34;101038.00;;;25.72;55.43
38786;BME280;24535;45.508;12.252;2022-08-21T03:47:00;101032.19;;;25.69;55.22
38786;BME280;24535;45.508;12.252;2022-08-21T03:49:26;101024.84;;;25.62;55.03
38786;BME280;24535;45.508;12.252;2022-08-21T03:51:52;101026.06;;;25.60;55.20
38786;BME280;24535;45.508;12.252;2022-08-21T03:54:17;101031.66;;;25.58;55.35
38786;BME280;24535;45.508;12.252;2022-08-21T03:56:43;101026.19;;;25.52;55.10
38786;BME280;24535;45.508;12.252;2022-08-21T03:59:08;101036.75;;;25.47;55.06
38786;BME280;24535;45.508;12.252;2022-08-21T04:01:34;101035.84;;;25.39;55.30
38786;BME280;24535;45.508;12.252;2022-08-21T04:04:00;101038.09;;;25.36;55.56
38786;BME280;24535;45.508;12.252;2022-08-21T04:06:25;101037.00;;;25.30;55.66
38786;BME280;24535;45.508;12.252;2022-08-21T04:08:52;101027.81;;;25.25;55.91
38786;BME280;24535;45.508;12.252;2022-08-21T04:11:18;101039.81;;;25.22;56.13
38786;BME280;24535;45.508;12.252;2022-08-21T04:13:44;101035.63;;;25.20;55.94
38786;BME280;24535;45.508;12.252;2022-08-21T04:16:10;101044.84;;;25.25;56.23
38786;BME280;24535;45.508;12.252;2022-08-21T04:18:36;101044.47;;;25.28;55.99
38786;BME280;24535;45.508;12.252;2022-08-21T04:21:01;101042.53;;;25.22;56.00
38786;BME280;24535;45.508;12.252;2022-08-21T04:23:28;101033.50;;;25.15;56.21
38786;BME280;24535;45.508;12.252;2022-08-21T04:25:55;101047.19;;;25.13;56.26
38786;BME280;24535;45.508;12.252;2022-08-21T04:28:21;101042.84;;;25.12;56.59
38786;BME280;24535;45.508;12.252;2022-08-21T04:30:47;101046.09;;;25.08;56.54
38786;BME280;24535;45.508;12.252;2022-08-21T04:33:12;101050.34;;;25.02;56.46
38786;BME280;24535;45.508;12.252;2022-08-21T04:35:38;101057.63;;;25.02;57.03
38786;BME280;24535;45.508;12.252;2022-08-21T04:38:03;101057.34;;;24.97;57.15
38786;BME280;24535;45.508;12.252;2022-08-21T04:40:29;101049.00;;;24.91;57.14
38786;BME280;24535;45.508;12.252;2022-08-21T04:43:00;101057.25;;;24.90;57.06
38786;BME280;24535;45.508;12.252;2022-08-21T04:45:31;101058.50;;;24.87;57.62
38786;BME280;24535;45.508;12.252;2022-08-21T04:48:02;101051.41;;;24.86;57.40
38786;BME280;24535;45.508;12.252;2022-08-21T04:52:55;101056.63;;;24.88;57.69
38786;BME280;24535;45.508;12.252;2022-08-21T04:55:22;101063.88;;;24.87;57.22
38786;BME280;24535;45.508;12.252;2022-08-21T04:57:49;101062.03;;;24.88;57.43
38786;BME280;24535;45.508;12.252;2022-08-21T05:00:16;101055.22;;;24.92;57.88
38786;BME280;24535;45.508;12.252;2022-08-21T05:02:44;101055.84;;;24.94;57.71
38786;BME280;24535;45.508;12.252;2022-08-21T05:05:09;101055.69;;;24.96;57.60
38786;BME280;24535;45.508;12.252;2022-08-21T05:07:35;101061.50;;;24.99;57.40
38786;BME280;24535;45.508;12.252;2022-08-21T05:10:03;101064.66;;;25.03;57.44
38786;BME280;24535;45.508;12.252;2022-08-21T05:12:30;101067.47;;;25.09;57.64
38786;BME280;24535;45.508;12.252;2022-08-21T05:14:59;101069.22;;;25.17;57.57
38786;BME280;24535;45.508;12.252;2022-08-21T05:17:24;101068.47;;;25.23;57.25
38786;BME280;24535;45.508;12.252;2022-08-21T05:19:50;101069.75;;;25.27;56.90
38786;BME280;24535;45.508;12.252;2022-08-21T05:22:20;101073.09;;;25.29;57.01
38786;BME280;24535;45.508;12.252;2022-08-21T05:24:46;101081.81;;;25.31;56.71
38786;BME280;24535;45.508;12.252;2022-08-21T05:27:11;101076.44;;;25.31;56.69
38786;BME280;24535;45.508;12.252;2022-08-21T05:29:37;101077.47;;;25.30;57.10
38786;BME280;24535;45.508;12.252;2022-08-21T05:32:11;101075.44;;;25.32;56.96
38786;BME280;24535;45.508;12.252;2022-08-21T05:34:37;101075.69;;;25.37;56.95
38786;BME280;24535;45.508;12.252;2022-08-21T05:37:03;101073.22;;;25.43;57.25
38786;BME280;24535;45.508;12.252;2022-08-21T05:39:29;101078.50;;;25.51;57.15
38786;BME280;24535;45.508;12.252;2022-08-21T05:41:54;101066.28;;;25.55;56.69
38786;BME280;24535;45.508;12.252;2022-08-21T05:44:20;101071.78;;;25.61;56.94
38786;BME280;24535;45.508;12.252;2022-08-21T05:46:47;101068.09;;;25.69;56.80
38786;BME280;24535;45.508;12.252;2022-08-21T05:49:15;101066.47;;;25.75;56.85
38786;BME280;24535;45.508;12.252;2022-08-21T05:51:41;101068.25;;;25.82;56.55
38786;BME280;24535;45.508;12.252;2022-08-21T05:54:07;101065.78;;;25.87;56.42
38786;BME280;24535;45.508;12.252;2022-08-21T05:56:33;101068.09;;;25.91;56.26
38786;BME280;24535;45.508;12.252;2022-08-21T05:58:58;101065.19;;;25.92;56.19
38786;BME280;24535;45.508;12.252;2022-08-21T06:01:24;101074.59;;;25.96;55.75
38786;BME280;24535;45.508;12.252;2022-08-21T06:03:49;101087.31;;;26.02;55.90
38786;BME280;24535;45.508;12.252;2022-08-21T06:06:15;101081.09;;;26.02;55.28
38786;BME280;24535;45.508;12.252;2022-08-21T06:08:40;101072.97;;;26.02;55.48
38786;BME280;24535;45.508;12.252;2022-08-21T06:11:07;101074.88;;;26.08;55.43
38786;BME280;24535;45.508;12.252;2022-08-21T06:13:33;101079.69;;;26.12;55.10
38786;BME280;24535;45.508;12.252;2022-08-21T06:16:08;101085.16;;;26.19;55.56
38786;BME280;24535;45.508;12.252;2022-08-21T06:18:35;101074.25;;;26.34;55.59
38786;BME280;24535;45.508;12.252;2022-08-21T06:21:00;101073.31;;;26.48;54.62
38786;BME280;24535;45.508;12.252;2022-08-21T06:23:28;101064.00;;;26.57;54.44
38786;BME280;24535;45.508;12.252;2022-08-21T06:25:54;101070.13;;;26.73;54.41
38786;BME280;24535;45.508;12.252;2022-08-21T06:28:19;101072.91;;;26.86;53.70
38786;BME280;24535;45.508;12.252;2022-08-21T06:30:44;101066.06;;;26.97;53.29
38786;BME280;24535;45.508;12.252;2022-08-21T06:33:10;101057.16;;;27.09;53.17
38786;BME280;24535;45.508;12.252;2022-08-21T06:35:35;101059.13;;;27.29;53.07
38786;BME280;24535;45.508;12.252;2022-08-21T06:38:01;101073.94;;;27.53;52.55
38786;BME280;24535;45.508;12.252;2022-08-21T06:40:28;101064.16;;;27.65;51.63
38786;BME280;24535;45.508;12.252;2022-08-21T06:42:53;101061.06;;;27.75;51.02
38786;BME280;24535;45.508;12.252;2022-08-21T06:45:19;101067.97;;;27.84;50.86
38786;BME280;24535;45.508;12.252;2022-08-21T06:47:45;101061.09;;;27.88;50.48
38786;BME280;24535;45.508;12.252;2022-08-21T06:50:13;101065.88;;;27.86;49.83
38786;BME280;24535;45.508;12.252;2022-08-21T06:52:39;101066.50;;;27.81;49.75
38786;BME280;24535;45.508;12.252;2022-08-21T06:55:06;101056.28;;;27.77;49.81
38786;BME280;24535;45.508;12.252;2022-08-21T06:57:33;101069.19;;;27.75;50.05
38786;BME280;24535;45.508;12.252;2022-08-21T06:59:58;101070.84;;;27.69;50.17
38786;BME280;24535;45.508;12.252;2022-08-21T07:02:24;101072.94;;;27.67;49.94
38786;BME280;24535;45.508;12.252;2022-08-21T07:04:49;101071.25;;;27.66;50.06
38786;BME280;24535;45.508;12.252;2022-08-21T07:07:16;101062.28;;;27.66;49.87
38786;BME280;24535;45.508;12.252;2022-08-21T07:09:42;101069.59;;;27.65;50.06
38786;BME280;24535;45.508;12.252;2022-08-21T07:12:09;101064.16;;;27.65;50.12
38786;BME280;24535;45.508;12.252;2022-08-21T07:14:35;101071.88;;;27.68;49.88
38786;BME280;24535;45.508;12.252;2022-08-21T07:17:01;101070.06;;;27.75;49.92
38786;BME280;24535;45.508;12.252;2022-08-21T07:19:26;101071.69;;;27.83;49.56
38786;BME280;24535;45.508;12.252;2022-08-21T07:21:58;101066.50;;;27.88;49.64
38786;BME280;24535;45.508;12.252;2022-08-21T07:24:25;101066.72;;;28.00;49.80
38786;BME280;24535;45.508;12.252;2022-08-21T07:26:51;101067.09;;;28.03;49.42
38786;BME280;24535;45.508;12.252;2022-08-21T07:29:19;101062.94;;;28.07;49.33
38786;BME280;24535;45.508;12.252;2022-08-21T07:31:45;101072.72;;;28.15;49.34
38786;BME280;24535;45.508;12.252;2022-08-21T07:34:10;101065.84;;;28.19;49.45
38786;BME280;24535;45.508;12.252;2022-08-21T07:36:36;101065.66;;;28.21;49.04
38786;BME280;24535;45.508;12.252;2022-08-21T07:39:05;101078.16;;;28.28;49.10
38786;BME280;24535;45.508;12.252;2022-08-21T07:41:30;101066.25;;;28.29;48.61
38786;BME280;24535;45.508;12.252;2022-08-21T07:43:58;101072.53;;;28.37;48.25
38786;BME280;24535;45.508;12.252;2022-08-21T07:46:24;101069.97;;;28.35;47.90
38786;BME280;24535;45.508;12.252;2022-08-21T07:48:51;101062.31;;;28.39;48.23
38786;BME280;24535;45.508;12.252;2022-08-21T07:51:17;101072.09;;;28.40;48.57
38786;BME280;24535;45.508;12.252;2022-08-21T07:53:51;101064.59;;;28.42;47.73
38786;BME280;24535;45.508;12.252;2022-08-21T07:56:17;101062.91;;;28.47;48.25
38786;BME280;24535;45.508;12.252;2022-08-21T07:58:43;101060.34;;;28.66;48.30
38786;BME280;24535;45.508;12.252;2022-08-21T08:01:08;101070.25;;;29.05;48.57
38786;BME280;24535;45.508;12.252;2022-08-21T08:03:34;101070.34;;;29.55;48.24
38786;BME280;24535;45.508;12.252;2022-08-21T08:06:00;101065.97;;;30.11;47.65
38786;BME280;24535;45.508;12.252;2022-08-21T08:08:26;101067.31;;;30.63;47.02
38786;BME280;24535;45.508;12.252;2022-08-21T08:10:53;101072.94;;;31.17;46.32
38786;BME280;24535;45.508;12.252;2022-08-21T08:13:19;101071.34;;;31.69;45.21
38786;BME280;24535;45.508;12.252;2022-08-21T08:15:44;101055.50;;;32.13;44.29
38786;BME280;24535;45.508;12.252;2022-08-21T08:18:10;101059.28;;;32.59;44.23
38786;BME280;24535;45.508;12.252;2022-08-21T08:20:35;101054.91;;;32.98;43.42
38786;BME280;24535;45.508;12.252;2022-08-21T08:23:01;101058.25;;;33.46;41.92
38786;BME280;24535;45.508;12.252;2022-08-21T08:25:27;101061.66;;;33.87;41.14
38786;BME280;24535;45.508;12.252;2022-08-21T08:27:53;101056.50;;;34.24;40.62
38786;BME280;24535;45.508;12.252;2022-08-21T08:30:19;101057.84;;;34.60;39.93
38786;BME280;24535;45.508;12.252;2022-08-21T08:32:46;101061.38;;;34.83;39.43
38786;BME280;24535;45.508;12.252;2022-08-21T08:35:13;101058.56;;;35.00;38.91
38786;BME280;24535;45.508;12.252;2022-08-21T08:37:39;101048.09;;;35.18;38.82
38786;BME280;24535;45.508;12.252;2022-08-21T08:40:18;101046.03;;;35.31;37.46
38786;BME280;24535;45.508;12.252;2022-08-21T08:42:46;101043.31;;;35.36;37.57
38786;BME280;24535;45.508;12.252;2022-08-21T08:45:16;101041.16;;;35.38;38.64
38786;BME280;24535;45.508;12.252;2022-08-21T08:47:45;101042.03;;;35.43;38.23
38786;BME280;24535;45.508;12.252;2022-08-21T08:50:37;101047.09;;;35.57;37.00
38786;BME280;24535;45.508;12.252;2022-08-21T08:53:15;101039.22;;;35.65;37.06
38786;BME280;24535;45.508;12.252;2022-08-21T08:55:45;101037.13;;;35.78;36.60
38786;BME280;24535;45.508;12.252;2022-08-21T08:58:26;101032.22;;;35.85;35.88
38786;BME280;24535;45.508;12.252;2022-08-21T09:00:53;101035.03;;;35.95;36.79
38786;BME280;24535;45.508;12.252;2022-08-21T09:03:22;101036.19;;;35.99;36.59
38786;BME280;24535;45.508;12.252;2022-08-21T09:09:02;101028.44;;;35.91;35.54
38786;BME280;24535;45.508;12.252;2022-08-21T09:11:48;101034.31;;;35.73;35.87
38786;BME280;24535;45.508;12.252;2022-08-21T09:17:04;101027.41;;;35.33;36.67
38786;BME280;24535;45.508;12.252;2022-08-21T09:26:07;101022.84;;;34.67;37.05
38786;BME280;24535;45.508;12.252;2022-08-21T09:28:44;101015.88;;;34.55;37.53
38786;BME280;24535;45.508;12.252;2022-08-21T09:31:48;101016.41;;;34.35;37.14
38786;BME280;24535;45.508;12.252;2022-08-21T09:34:24;101019.19;;;34.18;37.76
38786;BME280;24535;45.508;12.252;2022-08-21T09:36:50;101020.91;;;34.02;38.70
38786;BME280;24535;45.508;12.252;2022-08-21T09:39:28;101016.50;;;33.84;38.23
38786;BME280;24535;45.508;12.252;2022-08-21T09:41:57;101013.53;;;33.69;38.92
38786;BME280;24535;45.508;12.252;2022-08-21T09:44:31;101009.41;;;33.50;38.83
38786;BME280;24535;45.508;12.252;2022-08-21T09:46:57;101005.81;;;33.32;39.46
38786;BME280;24535;45.508;12.252;2022-08-21T09:49:42;101003.41;;;33.19;39.65
38786;BME280;24535;45.508;12.252;2022-08-21T09:52:21;101007.16;;;33.01;39.45
38786;BME280;24535;45.508;12.252;2022-08-21T09:54:51;101005.44;;;32.95;40.01
38786;BME280;24535;45.508;12.252;2022-08-21T09:57:27;101007.44;;;32.88;40.75
38786;BME280;24535;45.508;12.252;2022-08-21T10:00:32;101011.25;;;32.87;40.51
38786;BME280;24535;45.508;12.252;2022-08-21T10:05:38;101001.41;;;32.86;40.91
38786;BME280;24535;45.508;12.252;2022-08-21T10:08:04;100999.72;;;32.85;41.49
38786;BME280;24535;45.508;12.252;2022-08-21T10:10:38;101008.50;;;32.87;41.19
38786;BME280;24535;45.508;12.252;2022-08-21T10:15:54;100998.59;;;32.69;41.51
38786;BME280;24535;45.508;12.252;2022-08-21T10:18:47;100995.91;;;32.57;41.42
38786;BME280;24535;45.508;12.252;2022-08-21T10:21:26;100996.91;;;32.51;41.90
38786;BME280;24535;45.508;12.252;2022-08-21T10:24:58;100987.53;;;32.35;41.85
38786;BME280;24535;45.508;12.252;2022-08-21T10:41:21;100986.19;;;31.97;43.13
38786;BME280;24535;45.508;12.252;2022-08-21T10:49:26;100983.81;;;31.89;43.64
38786;BME280;24535;45.508;12.252;2022-08-21T10:52:23;100978.84;;;31.86;43.38
38786;BME280;24535;45.508;12.252;2022-08-21T10:55:04;100979.97;;;31.79;43.51
38786;BME280;24535;45.508;12.252;2022-08-21T10:57:45;100976.06;;;31.74;43.73
38786;BME280;24535;45.508;12.252;2022-08-21T11:00:16;100976.69;;;31.76;43.88
38786;BME280;24535;45.508;12.252;2022-08-21T11:02:52;100975.16;;;31.81;43.67
38786;BME280;24535;45.508;12.252;2022-08-21T11:05:27;100972.28;;;31.75;44.03
38786;BME280;24535;45.508;12.252;2022-08-21T11:08:10;100976.91;;;31.75;44.25
38786;BME280;24535;45.508;12.252;2022-08-21T11:10:53;100980.09;;;31.72;44.25
38786;BME280;24535;45.508;12.252;2022-08-21T11:13:38;100969.09;;;31.67;44.41
38786;BME280;24535;45.508;12.252;2022-08-21T11:16:14;100976.19;;;31.68;44.06
38786;BME280;24535;45.508;12.252;2022-08-21T11:19:42;100978.69;;;31.69;44.28
38786;BME280;24535;45.508;12.252;2022-08-21T11:22:18;100977.16;;;31.73;44.34
38786;BME280;24535;45.508;12.252;2022-08-21T11:24:48;100975.25;;;31.74;44.31
38786;BME280;24535;45.508;12.252;2022-08-21T11:27:32;100968.25;;;31.78;44.00
38786;BME280;24535;45.508;12.252;2022-08-21T11:30:00;100970.50;;;31.81;44.30
38786;BME280;24535;45.508;12.252;2022-08-21T11:33:29;100956.91;;;31.81;44.20
38786;BME280;24535;45.508;12.252;2022-08-21T11:36:00;100958.44;;;31.77;44.24
38786;BME280;24535;45.508;12.252;2022-08-21T11:38:46;100958.06;;;31.73;44.70
38786;BME280;24535;45.508;12.252;2022-08-21T11:41:38;100953.69;;;31.72;44.46
38786;BME280;24535;45.508;12.252;2022-08-21T11:44:20;100958.53;;;31.70;45.26
38786;BME280;24535;45.508;12.252;2022-08-21T11:47:03;100961.25;;;31.70;44.91
38786;BME280;24535;45.508;12.252;2022-08-21T11:49:46;100955.47;;;31.67;45.11
38786;BME280;24535;45.508;12.252;2022-08-21T11:52:41;100955.25;;;31.68;45.20
38786;BME280;24535;45.508;12.252;2022-08-21T11:55:18;100947.91;;;31.69;45.23
38786;BME280;24535;45.508;12.252;2022-08-21T12:02:51;100944.56;;;31.55;45.43
38786;BME280;24535;45.508;12.252;2022-08-21T12:05:36;100944.19;;;31.51;45.88
38786;BME280;24535;45.508;12.252;2022-08-21T12:10:40;100944.56;;;31.55;45.48
38786;BME280;24535;45.508;12.252;2022-08-21T12:13:11;100943.72;;;31.55;45.76
38786;BME280;24535;45.508;12.252;2022-08-21T12:15:47;100933.66;;;31.55;45.34
38786;BME280;24535;45.508;12.252;2022-08-21T12:18:38;100930.94;;;31.55;45.57
38786;BME280;24535;45.508;12.252;2022-08-21T12:21:20;100935.44;;;31.61;45.40
38786;BME280;24535;45.508;12.252;2022-08-21T12:26:24;100941.97;;;31.60;45.38
38786;BME280;24535;45.508;12.252;2022-08-21T12:28:51;100932.84;;;31.55;45.41
38786;BME280;24535;45.508;12.252;2022-08-21T12:31:27;100925.84;;;31.47;45.73
38786;BME280;24535;45.508;12.252;2022-08-21T12:33:58;100925.47;;;31.43;45.63
38786;BME280;24535;45.508;12.252;2022-08-21T12:36:49;100920.28;;;31.42;45.85
38786;BME280;24535;45.508;12.252;2022-08-21T12:39:25;100913.41;;;31.39;46.13
38786;BME280;24535;45.508;12.252;2022-08-21T12:42:19;100912.94;;;31.42;45.73
38786;BME280;24535;45.508;12.252;2022-08-21T12:44:46;100911.03;;;31.43;46.06
38786;BME280;24535;45.508;12.252;2022-08-21T12:47:43;100903.69;;;31.43;45.81
38786;BME280;24535;45.508;12.252;2022-08-21T12:50:26;100907.28;;;31.44;46.11
38786;BME280;24535;45.508;12.252;2022-08-21T12:52:59;100900.84;;;31.38;46.22
38786;BME280;24535;45.508;12.252;2022-08-21T12:55:31;100909.28;;;31.37;46.38
38786;BME280;24535;45.508;12.252;2022-08-21T12:57:58;100897.41;;;31.31;46.61
38786;BME280;24535;45.508;12.252;2022-08-21T13:00:26;100896.38;;;31.32;46.30
38786;BME280;24535;45.508;12.252;2022-08-21T13:02:53;100898.03;;;31.33;46.60
38786;BME280;24535;45.508;12.252;2022-08-21T13:05:35;100898.25;;;31.32;46.75
38786;BME280;24535;45.508;12.252;2022-08-21T13:08:07;100895.75;;;31.30;46.31
38786;BME280;24535;45.508;12.252;2022-08-21T13:10:34;100900.13;;;31.31;46.33
38786;BME280;24535;45.508;12.252;2022-08-21T13:13:04;100894.69;;;31.31;46.22
38786;BME280;24535;45.508;12.252;2022-08-21T13:15:36;100888.22;;;31.32;46.00
38786;BME280;24535;45.508;12.252;2022-08-21T13:18:04;100889.25;;;31.31;45.44
38786;BME280;24535;45.508;12.252;2022-08-21T13:20:31;100890.44;;;31.35;45.79
38786;BME280;24535;45.508;12.252;2022-08-21T13:23:00;100883.44;;;31.39;45.95
38786;BME280;24535;45.508;12.252;2022-08-21T13:25:29;100871.50;;;31.40;46.04
38786;BME280;24535;45.508;12.252;2022-08-21T13:28:07;100875.63;;;31.43;46.16
38786;BME280;24535;45.508;12.252;2022-08-21T13:30:52;100879.19;;;31.43;46.39
38786;BME280;24535;45.508;12.252;2022-08-21T13:33:22;100870.53;;;31.46;46.12
38786;BME280;24535;45.508;12.252;2022-08-21T13:36:03;100865.91;;;31.47;45.90
38786;BME280;24535;45.508;12.252;2022-08-21T13:38:31;100869.72;;;31.46;45.90
38786;BME280;24535;45.508;12.252;2022-08-21T13:41:02;100867.47;;;31.43;45.99
38786;BME280;24535;45.508;12.252;2022-08-21T13:43:33;100868.28;;;31.43;46.16
38786;BME280;24535;45.508;12.252;2022-08-21T13:46:08;100855.03;;;31.47;45.91
38786;BME280;24535;45.508;12.252;2022-08-21T13:48:36;100867.59;;;31.48;46.06
38786;BME280;24535;45.508;12.252;2022-08-21T13:51:02;100863.81;;;31.49;46.25
38786;BME280;24535;45.508;12.252;2022-08-21T13:53:36;100858.56;;;31.47;46.12